createdAt,value
2023-11-30T00:00:41.768Z,8.30
2023-11-30T00:03:09.978Z,9.50
2023-11-30T00:05:38.024Z,7.50
2023-11-30T00:08:06.431Z,9.03
2023-11-30T00:10:34.437Z,8.03
2023-11-30T00:13:02.551Z,9.70
2023-11-30T00:15:30.642Z,8.27
2023-11-30T00:18:00.325Z,8.00
2023-11-30T00:20:28.503Z,6.90
2023-11-30T00:22:56.497Z,6.67
2023-11-30T00:25:24.499Z,7.87
2023-11-30T00:27:52.525Z,7.57
2023-11-30T00:30:21.403Z,7.67
2023-11-30T00:32:49.674Z,8.60
2023-11-30T00:35:19.188Z,8.00
2023-11-30T00:37:47.453Z,9.33
2023-11-30T00:40:15.705Z,8.03
2023-11-30T00:42:43.841Z,13.47
2023-11-30T00:45:12.593Z,8.27
2023-11-30T00:47:40.769Z,7.40
2023-11-30T00:50:10.190Z,8.17
2023-11-30T00:52:39.531Z,9.20
2023-11-30T00:55:08.729Z,8.23
2023-11-30T00:57:36.727Z,8.00
2023-11-30T01:00:07.138Z,8.37
2023-11-30T01:02:35.247Z,7.60
2023-11-30T01:05:03.566Z,9.27
2023-11-30T01:07:31.606Z,8.67
2023-11-30T01:10:01.004Z,8.23
2023-11-30T01:12:29.271Z,8.83
2023-11-30T01:14:57.947Z,8.93
2023-11-30T01:17:26.383Z,9.07
2023-11-30T01:19:54.951Z,8.33
2023-11-30T01:22:22.990Z,9.67
2023-11-30T01:24:51.443Z,8.67
2023-11-30T01:27:21.379Z,7.83
2023-11-30T01:29:49.400Z,7.90
2023-11-30T01:32:17.743Z,8.57
2023-11-30T01:34:45.921Z,8.40
2023-11-30T01:37:14.007Z,10.87
2023-11-30T01:39:42.302Z,9.03
2023-11-30T01:42:10.538Z,8.87
2023-11-30T01:44:39.983Z,8.73
2023-11-30T01:47:09.173Z,10.30
2023-11-30T01:49:37.642Z,9.40
2023-11-30T01:52:06.548Z,10.30
2023-11-30T01:54:35.348Z,9.37
2023-11-30T01:57:05.061Z,9.70
2023-11-30T01:59:33.646Z,9.20
2023-11-30T02:02:03.254Z,9.00
2023-11-30T02:04:34.313Z,9.73
2023-11-30T02:07:03.642Z,9.37
2023-11-30T02:09:31.857Z,9.90
2023-11-30T02:11:59.886Z,10.60
2023-11-30T02:14:28.889Z,8.03
2023-11-30T02:16:56.885Z,9.00
2023-11-30T02:19:26.263Z,8.60
2023-11-30T02:21:55.994Z,8.73
2023-11-30T02:24:24.133Z,9.90
2023-11-30T02:26:52.305Z,9.17
2023-11-30T02:29:20.380Z,8.60
2023-11-30T02:31:48.470Z,8.27
2023-11-30T02:34:17.036Z,9.50
2023-11-30T02:36:45.057Z,9.07
2023-11-30T02:39:14.549Z,8.33
2023-11-30T02:41:42.586Z,8.13
2023-11-30T02:44:10.837Z,8.87
2023-11-30T02:46:39.169Z,8.20
2023-11-30T02:49:07.262Z,8.87
2023-11-30T02:51:36.631Z,9.00
2023-11-30T02:54:04.878Z,8.83
2023-11-30T02:56:40.690Z,7.93
2023-11-30T02:59:09.291Z,9.93
2023-11-30T03:01:45.373Z,9.20
2023-11-30T03:04:14.307Z,9.93
2023-11-30T03:06:43.474Z,10.87
2023-11-30T03:09:13.348Z,7.73
2023-11-30T03:11:42.833Z,9.13
2023-11-30T03:14:10.917Z,8.70
2023-11-30T03:16:39.065Z,9.00
2023-11-30T03:19:16.260Z,9.13
2023-11-30T03:21:45.989Z,9.07
2023-11-30T03:24:14.114Z,7.97
2023-11-30T03:26:43.503Z,8.13
2023-11-30T03:29:11.605Z,8.77
2023-11-30T03:31:40.910Z,8.93
2023-11-30T03:34:09.570Z,9.27
2023-11-30T03:36:37.768Z,10.67
2023-11-30T03:39:06.057Z,12.37
2023-11-30T03:41:34.563Z,10.17
2023-11-30T03:44:03.943Z,13.73
2023-11-30T03:46:32.202Z,9.17
2023-11-30T03:49:00.275Z,9.47
2023-11-30T03:51:28.271Z,9.97
2023-11-30T03:53:56.656Z,9.87
2023-11-30T03:56:24.792Z,9.70
2023-11-30T03:58:53.171Z,10.53
2023-11-30T04:01:25.987Z,10.40
2023-11-30T04:03:54.351Z,8.87
2023-11-30T04:06:23.652Z,8.30
2023-11-30T04:08:52.624Z,12.23
2023-11-30T04:11:20.923Z,9.20
2023-11-30T04:13:49.882Z,9.73
2023-11-30T04:16:18.984Z,9.00
2023-11-30T04:18:48.459Z,9.30
2023-11-30T04:21:16.660Z,11.63
2023-11-30T04:23:46.222Z,9.23
2023-11-30T04:26:14.378Z,9.80
2023-11-30T04:28:42.616Z,9.40
2023-11-30T04:31:11.035Z,10.60
2023-11-30T04:33:39.139Z,8.80
2023-11-30T04:36:09.457Z,8.37
2023-11-30T04:38:37.498Z,10.57
2023-11-30T04:41:05.849Z,8.97
2023-11-30T04:43:37.436Z,7.93
2023-11-30T04:46:06.249Z,9.53
2023-11-30T04:48:35.081Z,9.70
2023-11-30T04:51:03.490Z,10.90
2023-11-30T04:53:35.325Z,10.07
2023-11-30T04:56:03.446Z,9.60
2023-11-30T04:58:32.154Z,11.70
2023-11-30T05:01:00.521Z,10.07
2023-11-30T05:03:28.836Z,11.43
2023-11-30T05:05:57.316Z,11.33
2023-11-30T05:08:25.388Z,10.33
2023-11-30T05:10:54.844Z,11.17
2023-11-30T05:13:22.914Z,10.50
2023-11-30T05:15:50.949Z,11.10
2023-11-30T05:18:19.400Z,11.70
2023-11-30T05:20:47.518Z,11.33
2023-11-30T05:23:15.527Z,11.53
2023-11-30T05:25:43.649Z,11.23
2023-11-30T05:28:13.035Z,13.73
2023-11-30T05:30:41.099Z,11.63
2023-11-30T05:33:09.326Z,12.77
2023-11-30T05:35:37.536Z,12.67
2023-11-30T05:38:05.818Z,11.50
2023-11-30T05:40:33.934Z,11.20
2023-11-30T05:43:01.965Z,12.33
2023-11-30T05:45:31.341Z,11.33
2023-11-30T05:47:59.417Z,11.73
2023-11-30T05:50:27.456Z,12.60
2023-11-30T05:52:55.494Z,11.13
2023-11-30T05:55:23.780Z,11.73
2023-11-30T05:57:51.851Z,11.30
2023-11-30T06:00:21.457Z,12.57
2023-11-30T06:02:51.692Z,12.53
2023-11-30T06:05:19.763Z,11.53
2023-11-30T06:07:47.953Z,10.93
2023-11-30T06:10:16.585Z,11.27
2023-11-30T06:12:44.640Z,11.90
2023-11-30T06:15:13.618Z,12.03
2023-11-30T06:17:41.668Z,11.33
2023-11-30T06:20:13.373Z,11.93
2023-11-30T06:22:41.789Z,13.17
2023-11-30T06:25:10.899Z,11.43
2023-11-30T06:27:39.156Z,11.50
2023-11-30T06:30:09.267Z,12.70
2023-11-30T06:32:37.431Z,11.37
2023-11-30T06:35:06.324Z,11.27
2023-11-30T06:37:35.679Z,13.57
2023-11-30T06:40:04.013Z,13.17
2023-11-30T06:42:33.020Z,13.47
2023-11-30T06:45:01.328Z,12.63
2023-11-30T06:47:29.458Z,13.57
2023-11-30T06:49:57.469Z,14.90
2023-11-30T06:52:26.079Z,17.47
2023-11-30T06:54:55.496Z,18.90
2023-11-30T06:57:23.764Z,18.87
2023-11-30T06:59:51.934Z,17.30
2023-11-30T07:02:20.090Z,17.30
2023-11-30T07:04:48.276Z,17.07
2023-11-30T07:07:24.249Z,15.80
2023-11-30T07:10:02.082Z,14.17
2023-11-30T07:12:30.306Z,14.97
2023-11-30T07:14:58.634Z,14.93
2023-11-30T07:17:26.787Z,13.40
2023-11-30T07:19:55.037Z,13.90
2023-11-30T07:22:25.743Z,14.00
2023-11-30T07:24:53.968Z,13.63
2023-11-30T07:27:23.590Z,13.27
2023-11-30T07:29:51.689Z,13.10
2023-11-30T07:32:19.741Z,13.33
2023-11-30T07:34:48.629Z,14.47
2023-11-30T07:37:18.787Z,12.83
2023-11-30T07:39:46.927Z,13.40
2023-11-30T07:44:50.035Z,12.27
2023-11-30T07:47:19.925Z,11.83
2023-11-30T07:49:49.624Z,12.57
2023-11-30T07:52:17.656Z,13.10
2023-11-30T07:54:45.759Z,14.30
2023-11-30T07:57:13.825Z,14.53
2023-11-30T07:59:41.932Z,12.93
2023-11-30T08:02:11.313Z,13.30
2023-11-30T08:04:39.812Z,13.87
2023-11-30T08:07:06.992Z,12.27
2023-11-30T08:09:35.177Z,13.00
2023-11-30T08:12:03.503Z,12.53
2023-11-30T08:14:31.521Z,11.43
2023-11-30T08:17:00.441Z,12.97
2023-11-30T08:19:29.820Z,11.30
2023-11-30T08:21:57.875Z,11.30
2023-11-30T08:24:26.174Z,12.80
2023-11-30T08:26:54.198Z,11.93
2023-11-30T08:29:22.392Z,11.30
2023-11-30T08:31:50.536Z,10.13
2023-11-30T08:34:19.001Z,12.53
2023-11-30T08:36:48.594Z,10.43
2023-11-30T08:39:24.842Z,11.47
2023-11-30T08:41:54.276Z,11.57
2023-11-30T08:44:23.850Z,11.83
2023-11-30T08:46:52.524Z,11.93
2023-11-30T08:49:20.680Z,12.10
2023-11-30T08:51:50.352Z,11.13
2023-11-30T08:54:18.550Z,11.43
2023-11-30T08:56:46.637Z,11.90
2023-11-30T08:59:14.749Z,12.10
2023-11-30T09:01:42.984Z,11.17
2023-11-30T09:04:11.233Z,11.20
2023-11-30T09:06:39.396Z,12.10
2023-11-30T09:09:08.859Z,11.20
2023-11-30T09:11:37.170Z,12.03
2023-11-30T09:14:05.408Z,11.17
2023-11-30T09:16:33.497Z,13.07
2023-11-30T09:19:01.603Z,12.67
2023-11-30T09:21:29.683Z,15.87
2023-11-30T09:23:58.900Z,13.50
2023-11-30T09:26:28.677Z,13.90
2023-11-30T09:28:56.966Z,12.97
2023-11-30T09:31:25.149Z,13.60
2023-11-30T09:33:54.488Z,13.17
2023-11-30T09:36:23.788Z,14.70
2023-11-30T09:38:51.917Z,13.53
2023-11-30T09:41:23.942Z,15.40
2023-11-30T09:43:53.522Z,15.57
2023-11-30T09:46:21.542Z,15.97
2023-11-30T09:48:49.901Z,14.60
2023-11-30T09:51:22.511Z,14.00
2023-11-30T09:53:50.769Z,14.23
2023-11-30T09:56:18.845Z,13.70
2023-11-30T09:58:46.977Z,12.60
2023-11-30T10:01:16.505Z,12.27
2023-11-30T10:03:44.699Z,13.37
2023-11-30T10:06:14.218Z,13.43
2023-11-30T10:08:42.249Z,14.60
2023-11-30T10:11:11.011Z,13.67
2023-11-30T10:13:39.298Z,14.93
2023-11-30T10:16:08.523Z,12.77
2023-11-30T10:18:38.249Z,16.13
2023-11-30T10:21:08.593Z,14.73
2023-11-30T10:23:37.181Z,16.00
2023-11-30T10:26:06.135Z,15.03
2023-11-30T10:28:34.675Z,14.23
2023-11-30T10:31:04.375Z,14.53
2023-11-30T10:33:38.333Z,14.63
2023-11-30T10:36:08.690Z,12.90
2023-11-30T10:38:37.873Z,12.70
2023-11-30T10:41:08.989Z,12.03
2023-11-30T10:43:38.946Z,12.63
2023-11-30T10:46:09.269Z,13.00
2023-11-30T10:48:40.597Z,10.90
2023-11-30T10:51:12.795Z,11.80
2023-11-30T10:53:48.962Z,12.77
2023-11-30T10:56:18.646Z,12.60
2023-11-30T10:58:48.561Z,11.03
2023-11-30T11:01:16.635Z,9.83
2023-11-30T11:03:49.951Z,10.87
2023-11-30T11:06:18.636Z,12.60
2023-11-30T11:09:00.740Z,12.43
2023-11-30T11:11:30.511Z,14.53
2023-11-30T11:13:58.596Z,12.37
2023-11-30T11:16:37.270Z,11.37
2023-11-30T11:19:07.834Z,11.37
2023-11-30T11:21:40.547Z,12.13
2023-11-30T11:24:09.975Z,10.80
2023-11-30T11:26:45.828Z,12.97
2023-11-30T11:29:17.793Z,11.33
2023-11-30T11:31:49.432Z,10.33
2023-11-30T11:34:18.850Z,12.13
2023-11-30T11:36:47.081Z,12.57
2023-11-30T11:39:15.416Z,12.57
2023-11-30T11:41:44.044Z,11.93
2023-11-30T11:44:12.278Z,10.43
2023-11-30T11:46:41.028Z,11.47
2023-11-30T11:49:09.179Z,15.93
2023-11-30T11:51:46.407Z,11.90
2023-11-30T11:54:19.079Z,13.40
2023-11-30T11:56:50.728Z,11.20
2023-11-30T11:59:23.022Z,9.27
2023-11-30T12:01:52.176Z,9.90
2023-11-30T12:04:31.051Z,9.77
2023-11-30T12:07:01.705Z,12.50
2023-11-30T12:09:29.963Z,10.50
2023-11-30T12:11:58.352Z,11.10
2023-11-30T12:14:26.490Z,11.60
2023-11-30T12:16:54.586Z,9.43
2023-11-30T12:19:22.665Z,11.10
2023-11-30T12:21:50.860Z,10.30
2023-11-30T12:24:22.471Z,9.30
2023-11-30T12:26:50.756Z,8.47
2023-11-30T12:29:18.845Z,8.77
2023-11-30T12:31:46.952Z,8.80
2023-11-30T12:34:15.400Z,8.93
2023-11-30T12:36:44.445Z,9.07
2023-11-30T12:39:14.485Z,9.10
2023-11-30T12:41:45.686Z,9.67
2023-11-30T12:44:13.771Z,9.90
2023-11-30T12:46:41.886Z,9.60
2023-11-30T12:49:10.060Z,8.60
2023-11-30T12:51:38.159Z,8.60
2023-11-30T12:54:06.474Z,8.43
2023-11-30T12:56:34.969Z,8.17
2023-11-30T12:59:04.551Z,7.50
2023-11-30T13:01:32.688Z,7.33
2023-11-30T13:04:01.892Z,8.73
2023-11-30T13:06:30.390Z,8.20
2023-11-30T13:08:58.416Z,9.20
2023-11-30T13:11:26.664Z,6.83
2023-11-30T13:13:56.044Z,6.07
2023-11-30T13:16:25.750Z,7.30
2023-11-30T13:18:53.968Z,6.50
2023-11-30T13:21:22.296Z,5.97
2023-11-30T13:23:50.701Z,6.77
2023-11-30T13:26:19.796Z,6.60
2023-11-30T13:28:51.992Z,7.00
2023-11-30T13:31:21.503Z,6.20
2023-11-30T13:33:51.083Z,5.80
2023-11-30T13:36:19.363Z,6.03
2023-11-30T13:38:47.474Z,6.43
2023-11-30T13:41:15.492Z,6.57
2023-11-30T13:43:43.982Z,5.60
2023-11-30T13:46:14.454Z,5.40
2023-11-30T13:48:42.730Z,5.33
2023-11-30T13:51:13.068Z,6.80
2023-11-30T13:53:41.351Z,5.57
2023-11-30T13:56:10.955Z,6.97
2023-11-30T13:58:39.224Z,5.90
2023-11-30T14:01:07.749Z,6.03
2023-11-30T14:03:36.066Z,5.63
2023-11-30T14:06:05.062Z,6.20
2023-11-30T14:08:35.956Z,8.50
2023-11-30T14:11:06.537Z,5.60
2023-11-30T14:13:34.741Z,6.80
2023-11-30T14:16:04.085Z,7.77
2023-11-30T14:18:32.193Z,5.70
2023-11-30T14:21:00.570Z,5.23
2023-11-30T14:23:29.109Z,6.20
2023-11-30T14:25:59.473Z,6.13
2023-11-30T14:28:27.587Z,7.03
2023-11-30T14:30:56.082Z,7.30
2023-11-30T14:33:24.267Z,6.10
2023-11-30T14:35:52.393Z,5.70
2023-11-30T14:38:21.578Z,7.20
2023-11-30T14:40:49.849Z,6.77
2023-11-30T14:43:19.906Z,6.43
2023-11-30T14:45:48.171Z,7.80
2023-11-30T14:48:18.050Z,8.17
2023-11-30T14:50:46.250Z,8.87
2023-11-30T14:53:14.375Z,9.10
2023-11-30T14:55:42.581Z,6.70
2023-11-30T14:58:10.781Z,6.67
2023-11-30T15:00:41.520Z,7.77
2023-11-30T15:03:11.681Z,8.80
2023-11-30T15:05:40.719Z,10.03
2023-11-30T15:08:08.820Z,12.20
2023-11-30T15:10:35.855Z,14.10
2023-11-30T15:13:03.852Z,13.20
2023-11-30T15:15:31.942Z,14.03
2023-11-30T15:18:01.490Z,14.77
2023-11-30T15:20:30.525Z,16.13
2023-11-30T15:22:58.658Z,13.80
2023-11-30T15:25:26.956Z,13.80
2023-11-30T15:27:54.987Z,14.80
2023-11-30T15:30:25.265Z,15.20
2023-11-30T15:32:53.348Z,15.07
2023-11-30T15:35:22.716Z,16.00
2023-11-30T15:37:51.218Z,19.03
2023-11-30T15:40:21.961Z,17.80
2023-11-30T15:42:51.452Z,20.60
2023-11-30T15:45:22.651Z,19.63
2023-11-30T15:47:51.762Z,19.13
2023-11-30T15:50:20.074Z,19.63
2023-11-30T15:52:49.475Z,18.90
2023-11-30T15:55:17.737Z,20.13
2023-11-30T15:57:46.283Z,18.80
2023-11-30T16:00:15.780Z,19.40
2023-11-30T16:02:44.461Z,18.40
2023-11-30T16:05:14.381Z,21.37
2023-11-30T16:07:42.791Z,21.77
2023-11-30T16:10:12.783Z,23.33
2023-11-30T16:12:41.262Z,23.70
2023-11-30T16:15:11.406Z,22.93
2023-11-30T16:17:39.657Z,30.10
2023-11-30T16:20:11.470Z,23.57
2023-11-30T16:22:40.153Z,26.00
2023-11-30T16:25:09.304Z,24.13
2023-11-30T16:27:38.787Z,23.47
2023-11-30T16:30:09.212Z,23.30
2023-11-30T16:32:37.299Z,26.17
2023-11-30T16:35:06.879Z,25.27
2023-11-30T16:37:35.215Z,25.40
2023-11-30T16:40:04.076Z,25.07
2023-11-30T16:42:32.184Z,24.90
2023-11-30T16:45:01.924Z,27.03
2023-11-30T16:47:30.035Z,25.00
2023-11-30T16:49:58.091Z,22.67
2023-11-30T16:52:26.196Z,23.77
2023-11-30T16:54:54.575Z,27.90
2023-11-30T16:57:22.758Z,27.70
2023-11-30T16:59:50.811Z,25.00
2023-11-30T17:02:20.267Z,25.90
2023-11-30T17:04:48.575Z,25.23
2023-11-30T17:07:16.641Z,26.20
2023-11-30T17:09:48.581Z,33.00
2023-11-30T17:12:16.686Z,25.87
2023-11-30T17:14:44.981Z,26.20
2023-11-30T17:17:13.292Z,27.13
2023-11-30T17:19:42.686Z,27.57
2023-11-30T17:22:11.782Z,30.47
2023-11-30T17:24:42.547Z,27.43
2023-11-30T17:27:10.856Z,30.13
2023-11-30T17:29:40.846Z,28.97
2023-11-30T17:32:09.613Z,27.10
2023-11-30T17:34:38.231Z,30.43
2023-11-30T17:37:09.455Z,28.57
2023-11-30T17:39:37.598Z,27.87
2023-11-30T17:42:06.287Z,29.00
2023-11-30T17:44:34.481Z,32.03
2023-11-30T17:47:02.702Z,32.17
2023-11-30T17:49:30.855Z,33.10
2023-11-30T17:51:58.895Z,30.10
2023-11-30T17:54:28.521Z,34.10
2023-11-30T17:56:56.726Z,32.67
2023-11-30T17:59:25.253Z,29.03
2023-11-30T18:01:53.819Z,34.90
2023-11-30T18:04:21.922Z,33.40
2023-11-30T18:06:50.321Z,35.77
2023-11-30T18:09:18.772Z,35.40
2023-11-30T18:11:48.166Z,31.70
2023-11-30T18:14:16.235Z,31.90
2023-11-30T18:16:44.838Z,32.93
2023-11-30T18:19:13.327Z,35.30
2023-11-30T18:21:41.339Z,34.13
2023-11-30T18:24:09.469Z,35.03
2023-11-30T18:26:37.472Z,35.03
2023-11-30T18:29:07.146Z,35.33
2023-11-30T18:31:35.256Z,39.80
2023-11-30T18:34:03.557Z,37.70
2023-11-30T18:36:31.778Z,37.53
2023-11-30T18:38:59.903Z,37.40
2023-11-30T18:41:26.921Z,35.80
2023-11-30T18:43:54.970Z,40.90
2023-11-30T18:46:24.733Z,37.47
2023-11-30T18:48:51.829Z,37.30
2023-11-30T18:51:19.968Z,40.93
2023-11-30T18:53:48.043Z,43.70
2023-11-30T18:56:16.137Z,42.10
2023-11-30T18:58:45.140Z,40.30
2023-11-30T19:01:16.250Z,39.60
2023-11-30T19:03:46.247Z,45.00
2023-11-30T19:06:16.247Z,42.03
2023-11-30T19:08:44.797Z,48.67
2023-11-30T19:11:13.574Z,44.07
2023-11-30T19:13:42.799Z,46.60
2023-11-30T19:16:17.628Z,48.67
2023-11-30T19:18:48.700Z,56.00
2023-11-30T19:21:17.881Z,48.90
2023-11-30T19:23:46.226Z,53.47
2023-11-30T19:26:14.820Z,54.50
2023-11-30T19:28:42.944Z,50.70
2023-11-30T19:31:11.158Z,53.57
2023-11-30T19:33:39.271Z,47.20
2023-11-30T19:36:10.304Z,51.17
2023-11-30T19:38:38.614Z,52.00
2023-11-30T19:41:08.195Z,60.83
2023-11-30T19:43:36.434Z,58.63
2023-11-30T19:46:04.814Z,64.37
2023-11-30T19:48:32.972Z,55.63
2023-11-30T19:51:01.089Z,55.73
2023-11-30T19:53:31.158Z,53.60
2023-11-30T19:55:59.747Z,49.33
2023-11-30T19:58:27.857Z,58.13
2023-11-30T20:00:56.020Z,52.40
2023-11-30T20:03:24.138Z,49.37
2023-11-30T20:05:52.700Z,47.03
2023-11-30T20:08:20.877Z,49.37
2023-11-30T20:10:52.612Z,47.87
2023-11-30T20:13:20.941Z,54.40
2023-11-30T20:15:49.116Z,47.20
2023-11-30T20:18:17.320Z,48.17
2023-11-30T20:20:45.380Z,50.47
2023-11-30T20:23:13.498Z,49.13
2023-11-30T20:25:41.649Z,45.50
2023-11-30T20:28:11.416Z,41.17
2023-11-30T20:30:39.561Z,39.97
2023-11-30T20:33:07.807Z,41.13
2023-11-30T20:35:35.945Z,43.30
2023-11-30T20:38:04.029Z,44.70
2023-11-30T20:40:32.065Z,46.67
2023-11-30T20:43:00.144Z,45.03
2023-11-30T20:45:29.620Z,41.63
2023-11-30T20:47:57.781Z,40.87
2023-11-30T20:50:25.912Z,46.00
2023-11-30T20:52:54.331Z,47.13
2023-11-30T20:55:23.716Z,47.40
2023-11-30T20:57:51.790Z,45.23
2023-11-30T21:00:20.346Z,39.50
2023-11-30T21:02:49.891Z,43.13
2023-11-30T21:05:19.343Z,47.10
2023-11-30T21:07:47.452Z,45.60
2023-11-30T21:10:15.965Z,46.70
2023-11-30T21:12:44.068Z,43.13
2023-11-30T21:15:12.957Z,44.93
2023-11-30T21:17:41.003Z,44.50
2023-11-30T21:20:10.974Z,49.47
2023-11-30T21:22:39.099Z,43.33
2023-11-30T21:25:07.256Z,44.40
2023-11-30T21:27:35.392Z,49.90
2023-11-30T21:30:04.022Z,41.10
2023-11-30T21:32:32.139Z,43.93
2023-11-30T21:35:00.633Z,40.00
2023-11-30T21:37:30.402Z,38.43
2023-11-30T21:39:58.734Z,41.43
2023-11-30T21:42:26.838Z,44.27
2023-11-30T21:44:55.652Z,45.53
2023-11-30T21:47:23.635Z,48.37
2023-11-30T21:49:51.639Z,41.97
2023-11-30T21:52:20.108Z,44.23
2023-11-30T21:54:49.474Z,44.57
2023-11-30T21:57:17.983Z,45.97
2023-11-30T21:59:46.414Z,48.30
2023-11-30T22:02:16.491Z,49.03
2023-11-30T22:04:44.755Z,49.30
2023-11-30T22:07:12.875Z,50.60
2023-11-30T22:09:39.958Z,50.70
2023-11-30T22:12:10.562Z,48.20
2023-11-30T22:14:38.650Z,50.53
2023-11-30T22:17:06.762Z,52.07
2023-11-30T22:19:34.880Z,43.63
2023-11-30T22:22:03.166Z,47.90
2023-11-30T22:24:31.216Z,50.57
2023-11-30T22:26:59.661Z,51.93
2023-11-30T22:29:30.021Z,45.90
2023-11-30T22:31:58.067Z,47.90
2023-11-30T22:34:26.528Z,50.23
2023-11-30T22:36:54.701Z,45.03
2023-11-30T22:39:22.798Z,49.00
2023-11-30T22:41:51.278Z,45.63
2023-11-30T22:44:19.470Z,46.10
2023-11-30T22:46:49.153Z,48.43
2023-11-30T22:49:20.239Z,50.30
2023-11-30T22:51:50.059Z,46.90
2023-11-30T22:54:18.471Z,47.10
2023-11-30T22:56:46.585Z,38.47
2023-11-30T22:59:16.387Z,36.17
2023-11-30T23:01:44.607Z,40.60
2023-11-30T23:04:14.713Z,39.40
2023-11-30T23:06:42.959Z,47.57
2023-11-30T23:09:11.070Z,48.00
2023-11-30T23:11:39.291Z,54.23
2023-11-30T23:14:07.302Z,43.53
2023-11-30T23:16:35.486Z,44.63
2023-11-30T23:19:03.590Z,41.57
2023-11-30T23:21:32.986Z,51.73
2023-11-30T23:24:01.284Z,46.70
2023-11-30T23:26:30.235Z,46.00
2023-11-30T23:28:58.273Z,45.07
2023-11-30T23:31:26.446Z,45.43
2023-11-30T23:33:57.409Z,49.53
2023-11-30T23:36:27.212Z,42.00
2023-11-30T23:38:57.625Z,47.80
2023-11-30T23:41:25.603Z,42.33
2023-11-30T23:43:53.842Z,43.63
2023-11-30T23:46:22.122Z,39.57
2023-11-30T23:48:50.211Z,45.53
2023-11-30T23:51:18.456Z,45.47
2023-11-30T23:53:46.690Z,46.17
2023-11-30T23:56:16.176Z,42.33
2023-11-30T23:58:44.173Z,38.73
